createdAt,value
2019-06-07T00:04:01.505Z,12.97
2019-06-07T00:08:09.699Z,13.03
2019-06-07T00:12:14.899Z,13.08
2019-06-07T00:16:23.046Z,13.08
2019-06-07T00:20:26.312Z,13.01
2019-06-07T00:24:31.173Z,13.00
2019-06-07T00:28:36.083Z,13.06
2019-06-07T00:32:40.979Z,13.13
2019-06-07T00:36:45.878Z,13.23
2019-06-07T00:40:50.776Z,13.33
2019-06-07T00:44:55.666Z,13.30
2019-06-07T00:49:00.606Z,13.31
2019-06-07T00:53:15.455Z,13.16
2019-06-07T00:57:12.519Z,12.99
2019-06-07T01:01:22.212Z,12.86
2019-06-07T01:05:31.036Z,12.65
2019-06-07T01:09:31.912Z,12.48
2019-06-07T01:13:36.815Z,12.53
2019-06-07T01:18:11.968Z,12.54
2019-06-07T01:21:48.317Z,12.47
2019-06-07T01:25:53.209Z,12.34
2019-06-07T01:29:58.109Z,12.22
2019-06-07T01:34:04.147Z,12.07
2019-06-07T01:38:09.044Z,12.02
2019-06-07T01:42:13.949Z,11.95
2019-06-07T01:46:20.604Z,11.78
2019-06-07T01:50:27.146Z,11.73
2019-06-07T01:58:38.809Z,11.65
2019-06-07T02:02:44.679Z,11.54
2019-06-07T02:06:49.586Z,11.48
2019-06-07T02:10:54.474Z,11.41
2019-06-07T02:14:59.373Z,11.35
2019-06-07T02:19:04.448Z,11.30
2019-06-07T02:23:09.337Z,11.26
2019-06-07T02:27:14.231Z,11.21
2019-06-07T02:31:19.136Z,11.24
2019-06-07T02:35:30.939Z,11.26
2019-06-07T02:39:36.816Z,11.26
2019-06-07T02:43:37.492Z,11.31
2019-06-07T02:47:45.110Z,11.27
2019-06-07T02:51:50.005Z,11.24
2019-06-07T02:56:34.927Z,11.28
2019-06-07T03:00:25.829Z,11.42
2019-06-07T03:04:09.535Z,11.56
2019-06-07T03:08:16.269Z,11.66
2019-06-07T03:12:22.508Z,11.65
2019-06-07T03:16:36.781Z,11.57
2019-06-07T03:20:39.861Z,11.41
2019-06-07T03:24:45.608Z,11.51
2019-06-07T03:28:50.501Z,11.46
2019-06-07T03:32:56.372Z,11.52
2019-06-07T03:37:01.265Z,11.48
2019-06-07T03:41:06.168Z,11.64
2019-06-07T03:45:11.133Z,11.80
2019-06-07T03:49:16.023Z,11.94
2019-06-07T03:53:20.919Z,12.05
2019-06-07T03:57:28.582Z,12.04
2019-06-07T04:01:34.739Z,12.08
2019-06-07T04:05:42.941Z,12.21
2019-06-07T04:09:45.597Z,12.33
2019-06-07T04:13:50.494Z,12.27
2019-06-07T04:18:01.924Z,12.24
2019-06-07T04:22:02.024Z,12.35
2019-06-07T04:26:06.886Z,12.38
2019-06-07T04:30:12.226Z,12.54
2019-06-07T04:34:17.123Z,12.71
2019-06-07T04:38:23.162Z,12.76
2019-06-07T04:42:34.415Z,12.77
2019-06-07T04:46:42.714Z,12.79
2019-06-07T04:50:48.301Z,12.88
2019-06-07T04:54:53.137Z,13.07
2019-06-07T04:58:58.037Z,13.45
2019-06-07T05:03:04.071Z,13.98
2019-06-07T05:07:09.039Z,14.22
2019-06-07T05:11:13.931Z,14.27
2019-06-07T05:15:18.898Z,14.25
2019-06-07T05:19:23.802Z,14.16
2019-06-07T05:24:03.466Z,14.11
2019-06-07T05:27:36.450Z,14.25
2019-06-07T05:31:45.336Z,15.94
2019-06-07T05:35:49.619Z,16.45
2019-06-07T05:39:54.624Z,17.31
2019-06-07T05:44:12.126Z,17.78
2019-06-07T05:48:07.884Z,18.72
2019-06-07T05:52:12.800Z,21.11
2019-06-07T05:56:17.971Z,20.33
2019-06-07T06:00:22.997Z,19.80
2019-06-07T06:04:28.918Z,20.23
2019-06-07T06:08:36.671Z,18.85
2019-06-07T06:12:45.170Z,18.85
2019-06-07T06:16:49.728Z,20.31
2019-06-07T06:21:16.025Z,21.50
2019-06-07T06:25:31.008Z,24.33
2019-06-07T06:29:06.924Z,27.05
2019-06-07T06:33:30.797Z,28.17
2019-06-07T06:37:18.416Z,28.10
2019-06-07T06:41:24.287Z,28.16
2019-06-07T06:45:29.203Z,27.86
2019-06-07T06:49:34.145Z,27.60
2019-06-07T06:53:40.405Z,28.59
2019-06-07T06:57:45.956Z,29.20
2019-06-07T07:01:52.664Z,30.22
2019-06-07T07:06:24.190Z,28.68
2019-06-07T07:10:08.034Z,27.81
2019-06-07T07:14:13.146Z,25.30
2019-06-07T07:18:18.046Z,23.77
2019-06-07T07:22:22.955Z,22.25
2019-06-07T07:26:27.860Z,21.28
2019-06-07T07:30:55.250Z,20.85
2019-06-07T07:35:00.662Z,20.10
2019-06-07T07:39:07.138Z,19.72
2019-06-07T07:43:12.181Z,19.82
2019-06-07T07:47:17.091Z,19.65
2019-06-07T07:51:22.035Z,19.60
2019-06-07T07:55:26.988Z,19.09
2019-06-07T07:59:41.713Z,18.95
2019-06-07T08:03:38.967Z,19.04
2019-06-07T08:07:43.897Z,18.71
2019-06-07T08:11:49.977Z,18.65
2019-06-07T08:15:59.249Z,18.75
2019-06-07T08:20:02.826Z,18.51
2019-06-07T08:24:08.196Z,18.52
2019-06-07T08:28:13.097Z,18.76
2019-06-07T08:32:17.999Z,19.10
2019-06-07T08:36:40.747Z,19.44
2019-06-07T08:40:30.625Z,19.14
2019-06-07T08:44:35.531Z,19.24
2019-06-07T08:48:40.430Z,19.11
2019-06-07T08:52:45.339Z,19.35
2019-06-07T08:56:53.685Z,19.61
2019-06-07T09:01:03.661Z,19.83
2019-06-07T09:05:11.712Z,19.92
2019-06-07T09:09:11.138Z,20.01
2019-06-07T09:13:16.038Z,19.86
2019-06-07T09:17:20.944Z,19.52
2019-06-07T09:21:25.833Z,19.31
2019-06-07T09:25:30.803Z,19.00
2019-06-07T09:29:36.839Z,19.19
2019-06-07T09:33:41.743Z,19.52
2019-06-07T09:41:53.233Z,19.81
2019-06-07T09:46:00.486Z,19.99
2019-06-07T09:50:11.420Z,20.26
2019-06-07T09:55:02.292Z,20.41
2019-06-07T10:02:26.010Z,20.11
2019-06-07T10:06:30.895Z,19.93
2019-06-07T10:10:35.804Z,20.00
2019-06-07T10:14:44.132Z,20.05
2019-06-07T10:18:47.316Z,20.11
2019-06-07T10:22:52.236Z,20.18
2019-06-07T10:26:57.116Z,20.28
2019-06-07T10:31:02.135Z,20.37
2019-06-07T10:35:08.202Z,20.43
2019-06-07T10:39:14.035Z,20.46
2019-06-07T10:43:18.934Z,20.40
2019-06-07T10:47:23.829Z,20.45
2019-06-07T10:51:28.729Z,20.46
2019-06-07T10:55:33.640Z,20.59
2019-06-07T10:59:38.542Z,20.65
2019-06-07T11:03:43.516Z,20.77
2019-06-07T11:07:48.436Z,20.85
2019-06-07T11:11:53.333Z,20.71
2019-06-07T11:15:58.232Z,20.59
2019-06-07T11:20:06.057Z,20.73
2019-06-07T11:24:12.285Z,20.80
2019-06-07T11:28:18.662Z,20.40
2019-06-07T11:32:24.391Z,20.58
2019-06-07T11:36:29.308Z,20.86
2019-06-07T11:40:35.977Z,20.91
2019-06-07T11:44:55.687Z,21.03
2019-06-07T11:48:47.533Z,20.91
2019-06-07T11:52:53.505Z,20.80
2019-06-07T11:56:58.406Z,20.95
2019-06-07T12:01:03.314Z,20.96
2019-06-07T12:05:10.414Z,21.01
2019-06-07T12:09:16.834Z,21.20
2019-06-07T12:13:21.942Z,21.48
2019-06-07T12:17:26.909Z,21.66
2019-06-07T12:21:31.818Z,21.75
2019-06-07T12:25:36.725Z,21.78
2019-06-07T12:29:41.611Z,21.97
2019-06-07T12:33:46.515Z,22.36
2019-06-07T12:37:51.428Z,22.60
2019-06-07T12:41:56.325Z,22.89
2019-06-07T12:46:01.241Z,23.64
2019-06-07T12:50:07.853Z,24.23
2019-06-07T12:54:13.334Z,24.47
2019-06-07T12:58:27.192Z,24.55
2019-06-07T13:02:25.617Z,24.74
2019-06-07T13:06:30.553Z,24.78
2019-06-07T13:10:35.470Z,24.53
2019-06-07T13:14:40.391Z,24.40
2019-06-07T13:18:45.258Z,24.41
2019-06-07T13:22:50.165Z,24.37
2019-06-07T13:26:55.073Z,24.27
2019-06-07T13:30:59.957Z,24.28
2019-06-07T13:35:06.600Z,24.25
2019-06-07T13:39:11.498Z,24.25
2019-06-07T13:43:17.269Z,24.27
2019-06-07T13:47:23.107Z,24.29
2019-06-07T13:51:29.128Z,24.26
2019-06-07T13:55:33.993Z,24.35
2019-06-07T13:59:38.897Z,24.44
2019-06-07T14:03:43.794Z,24.47
2019-06-07T14:07:48.697Z,24.52
2019-06-07T14:11:53.596Z,24.52
2019-06-07T14:15:58.492Z,24.56
2019-06-07T14:20:05.115Z,24.57
2019-06-07T14:24:09.978Z,24.62
2019-06-07T14:28:14.887Z,24.69
2019-06-07T14:32:19.786Z,24.74
2019-06-07T14:36:24.861Z,24.81
2019-06-07T14:40:30.141Z,24.80
2019-06-07T14:44:35.125Z,24.86
2019-06-07T14:48:40.016Z,24.95
2019-06-07T14:52:44.923Z,25.00
2019-06-07T14:56:49.835Z,25.10
2019-06-07T15:00:54.755Z,25.24
2019-06-07T15:04:59.833Z,25.33
2019-06-07T15:09:07.953Z,25.27
2019-06-07T15:13:12.913Z,25.24
2019-06-07T15:17:17.823Z,25.36
2019-06-07T15:21:22.729Z,25.45
2019-06-07T15:25:29.074Z,25.31
2019-06-07T15:29:34.119Z,25.08
2019-06-07T15:33:39.009Z,25.09
2019-06-07T15:37:43.914Z,25.21
2019-06-07T15:41:48.820Z,25.31
2019-06-07T15:45:53.730Z,25.33
2019-06-07T15:49:58.629Z,25.38
2019-06-07T15:54:03.618Z,25.48
2019-06-07T15:58:08.882Z,25.40
2019-06-07T16:02:13.858Z,25.30
2019-06-07T16:06:19.722Z,25.18
2019-06-07T16:10:24.739Z,25.06
2019-06-07T16:14:29.638Z,24.98
2019-06-07T16:18:35.230Z,24.94
2019-06-07T16:22:40.181Z,24.86
2019-06-07T16:26:45.104Z,24.71
2019-06-07T16:30:50.180Z,24.61
2019-06-07T16:34:55.076Z,24.43
2019-06-07T16:38:59.980Z,24.32
2019-06-07T16:43:16.986Z,24.33
2019-06-07T16:47:13.105Z,24.36
2019-06-07T16:51:17.987Z,24.34
2019-06-07T16:55:22.975Z,24.33
2019-06-07T16:59:27.851Z,24.20
2019-06-07T17:03:32.767Z,24.20
2019-06-07T17:07:38.311Z,24.22
2019-06-07T17:11:44.322Z,24.23
2019-06-07T17:15:49.185Z,24.08
2019-06-07T17:19:54.088Z,23.86
2019-06-07T17:23:58.984Z,23.69
2019-06-07T17:28:03.953Z,23.62
2019-06-07T17:32:08.863Z,23.38
2019-06-07T17:36:13.788Z,22.79
2019-06-07T17:40:18.789Z,21.22
2019-06-07T17:44:23.691Z,19.75
2019-06-07T17:48:28.591Z,19.16
2019-06-07T17:52:33.509Z,18.73
2019-06-07T17:56:38.399Z,18.30
2019-06-07T18:00:51.176Z,17.78
2019-06-07T18:04:57.171Z,17.27
2019-06-07T18:09:04.581Z,16.96
2019-06-07T18:13:10.453Z,16.68
2019-06-07T18:17:15.355Z,16.33
2019-06-07T18:21:20.244Z,15.90
2019-06-07T18:25:25.146Z,15.74
2019-06-07T18:29:30.046Z,15.73
2019-06-07T18:33:34.944Z,15.77
2019-06-07T18:37:39.846Z,15.65
2019-06-07T18:41:44.740Z,15.47
2019-06-07T18:45:49.650Z,15.42
2019-06-07T18:49:57.708Z,15.45
2019-06-07T18:54:03.009Z,15.46
2019-06-07T18:58:07.905Z,15.42
2019-06-07T19:02:12.809Z,15.31
2019-06-07T19:06:17.713Z,15.28
2019-06-07T19:10:23.223Z,15.20
2019-06-07T19:14:36.687Z,15.22
2019-06-07T19:18:34.726Z,15.16
2019-06-07T19:22:39.828Z,15.14
2019-06-07T19:26:44.810Z,15.23
2019-06-07T19:30:50.801Z,15.29
2019-06-07T19:34:55.677Z,15.31
2019-06-07T19:39:02.008Z,15.27
2019-06-07T19:43:08.511Z,15.22
2019-06-07T19:47:13.420Z,15.16
2019-06-07T19:51:20.386Z,15.16
2019-06-07T19:55:24.912Z,15.19
2019-06-07T19:59:29.817Z,15.04
2019-06-07T20:03:34.723Z,15.21
2019-06-07T20:07:39.612Z,15.29
2019-06-07T20:11:44.537Z,15.41
2019-06-07T20:15:49.435Z,15.54
2019-06-07T20:19:54.338Z,15.71
2019-06-07T20:24:01.652Z,15.95
2019-06-07T20:28:05.890Z,15.78
2019-06-07T20:32:10.788Z,15.46
2019-06-07T20:36:15.684Z,15.19
2019-06-07T20:40:24.612Z,15.19
2019-06-07T20:44:27.178Z,15.17
2019-06-07T20:48:32.077Z,15.10
2019-06-07T20:52:37.061Z,15.16
2019-06-07T20:56:41.943Z,15.26
2019-06-07T21:00:46.846Z,15.25
2019-06-07T21:04:51.732Z,15.21
2019-06-07T21:08:56.640Z,15.22
2019-06-07T21:13:01.865Z,15.21
2019-06-07T21:17:08.163Z,15.16
2019-06-07T21:21:13.202Z,15.12
2019-06-07T21:25:18.101Z,15.13
2019-06-07T21:29:23.011Z,15.04
2019-06-07T21:33:27.936Z,15.02
2019-06-07T21:37:32.830Z,14.99
2019-06-07T21:41:37.736Z,14.95
2019-06-07T21:45:42.896Z,14.89
2019-06-07T21:49:47.812Z,14.79
2019-06-07T21:53:53.787Z,14.72
2019-06-07T21:57:58.676Z,14.65
2019-06-07T22:02:03.645Z,14.55
2019-06-07T22:06:09.713Z,14.45
2019-06-07T22:10:14.770Z,14.45
2019-06-07T22:14:19.675Z,14.37
2019-06-07T22:18:24.572Z,14.25
2019-06-07T22:22:29.486Z,14.15
2019-06-07T22:26:34.407Z,14.15
2019-06-07T22:30:39.286Z,14.28
2019-06-07T22:34:44.189Z,14.31
2019-06-07T22:38:49.090Z,14.38
2019-06-07T22:42:53.991Z,14.36
2019-06-07T22:46:58.890Z,14.36
2019-06-07T22:51:07.705Z,14.32
2019-06-07T22:55:13.845Z,14.32
2019-06-07T22:59:20.476Z,14.28
2019-06-07T23:03:25.601Z,14.23
2019-06-07T23:07:30.501Z,14.20
2019-06-07T23:11:35.386Z,14.19
2019-06-07T23:15:40.281Z,14.18
2019-06-07T23:19:45.181Z,14.18
2019-06-07T23:23:50.079Z,14.17
2019-06-07T23:27:54.990Z,14.33
2019-06-07T23:31:59.862Z,14.57
2019-06-07T23:36:04.770Z,14.57
2019-06-07T23:40:11.191Z,14.43
2019-06-07T23:44:17.146Z,14.32
2019-06-07T23:48:22.154Z,14.23
2019-06-07T23:52:27.048Z,14.17
2019-06-07T23:56:31.955Z,14.16
